TimeCST,TemperatureF,Dew PointF,Humidity,Sea Level PressureIn,VisibilityMPH,Wind Direction,Wind SpeedMPH,Gust SpeedMPH,PrecipitationIn,Events,Conditions,WindDirDegrees,DateUTC
12:15 AM,11.1,0.1,61,30.32,10.0,Calm,Calm,-,N/A,,Overcast,0,2013-01-22 06:15:00
12:35 AM,11.1,-0.4,60,30.32,10.0,West,3.5,-,N/A,,Overcast,280,2013-01-22 06:35:00
12:55 AM,11.1,-0.8,59,30.33,10.0,West,4.6,-,N/A,,Overcast,260,2013-01-22 06:55:00
1:15 AM,11.3,-0.6,59,30.33,10.0,West,3.5,-,N/A,,Overcast,270,2013-01-22 07:15:00
1:55 AM,10.9,-1.1,58,30.32,10.0,Calm,Calm,-,N/A,,Overcast,0,2013-01-22 07:55:00
2:15 AM,11.1,0.5,62,30.33,7.0,Calm,Calm,-,N/A,Snow,Light Snow,0,2013-01-22 08:15:00
2:35 AM,10.9,0.9,64,30.33,10.0,NW,3.5,-,N/A,,Overcast,310,2013-01-22 08:35:00
2:55 AM,10.9,1.2,65,30.33,7.0,Calm,Calm,-,N/A,Snow,Light Snow,0,2013-01-22 08:55:00
3:15 AM,10.8,2.1,68,30.33,7.0,Calm,Calm,-,N/A,,Overcast,0,2013-01-22 09:15:00
3:35 AM,10.8,2.7,70,30.33,10.0,Calm,Calm,-,N/A,Snow,Light Snow,0,2013-01-22 09:35:00
3:55 AM,10.4,3.2,73,30.32,3.0,Calm,Calm,-,N/A,Snow,Light Snow,0,2013-01-22 09:55:00
4:15 AM,10.4,3.0,72,30.32,5.0,Calm,Calm,-,N/A,Snow,Light Snow,0,2013-01-22 10:15:00
4:35 AM,10.4,3.6,74,30.31,1.8,Calm,Calm,-,N/A,Snow,Light Snow,0,2013-01-22 10:35:00
4:55 AM,10.2,4.3,77,30.30,2.5,Calm,Calm,-,N/A,Snow,Light Snow,0,2013-01-22 10:55:00
5:15 AM,10.2,4.5,78,30.30,7.0,Calm,Calm,-,N/A,Snow,Light Snow,0,2013-01-22 11:15:00
5:35 AM,10.2,3.7,75,30.30,2.5,Calm,Calm,-,N/A,Snow,Light Snow,0,2013-01-22 11:35:00
5:55 AM,10.2,4.1,76,30.30,1.5,Calm,Calm,-,N/A,Snow,Light Snow,0,2013-01-22 11:55:00
6:15 AM,10.0,4.8,79,30.31,1.5,Calm,Calm,-,N/A,Snow,Light Snow,0,2013-01-22 12:15:00
6:35 AM,9.9,5.0,81,30.32,1.8,Calm,Calm,-,N/A,Snow,Light Snow,0,2013-01-22 12:35:00
6:55 AM,10.0,5.7,83,30.33,1.8,Calm,Calm,-,N/A,Snow,Light Snow,0,2013-01-22 12:55:00
7:15 AM,10.0,5.9,83,30.33,2.0,NE,3.5,-,N/A,Snow,Light Snow,50,2013-01-22 13:15:00
7:35 AM,10.2,5.9,83,30.33,3.0,ENE,3.5,-,N/A,Snow,Light Snow,70,2013-01-22 13:35:00
7:55 AM,10.2,6.1,83,30.34,2.5,NE,4.6,-,N/A,Snow,Light Snow,50,2013-01-22 13:55:00
8:15 AM,10.2,5.9,83,30.35,0.8,East,4.6,-,N/A,Snow,Light Snow,80,2013-01-22 14:15:00
8:35 AM,10.0,5.7,83,30.35,4.0,East,4.6,-,N/A,Snow,Light Snow,80,2013-01-22 14:35:00
8:55 AM,10.2,5.9,83,30.36,10.0,East,4.6,-,N/A,,Overcast,80,2013-01-22 14:55:00
9:35 AM,10.8,6.1,81,30.35,10.0,East,4.6,-,N/A,,Overcast,100,2013-01-22 15:35:00
9:55 AM,11.1,6.1,80,30.35,10.0,East,4.6,-,N/A,Snow,Light Snow,100,2013-01-22 15:55:00
10:15 AM,11.3,6.1,80,30.35,10.0,SE,4.6,-,N/A,Snow,Light Snow,140,2013-01-22 16:15:00
10:35 AM,12.0,6.4,78,30.35,10.0,SSE,5.8,-,N/A,,Overcast,150,2013-01-22 16:35:00
10:55 AM,12.7,7.3,79,30.35,10.0,South,6.9,-,N/A,,Overcast,170,2013-01-22 16:55:00
11:15 AM,13.3,7.7,78,30.35,10.0,SSE,6.9,-,N/A,Snow,Light Snow,160,2013-01-22 17:15:00
11:35 AM,14.0,7.7,76,30.36,7.0,South,4.6,-,N/A,Snow,Light Snow,180,2013-01-22 17:35:00
11:55 AM,14.0,7.5,75,30.35,10.0,South,5.8,-,N/A,,Overcast,190,2013-01-22 17:55:00
12:15 PM,14.7,8.2,75,30.32,10.0,South,6.9,-,N/A,,Overcast,180,2013-01-22 18:15:00
12:35 PM,15.3,8.2,74,30.31,10.0,South,4.6,-,N/A,,Overcast,170,2013-01-22 18:35:00
12:55 PM,15.6,8.1,72,30.31,10.0,Calm,Calm,-,N/A,,Overcast,0,2013-01-22 18:55:00
1:15 PM,15.8,8.2,72,30.30,10.0,SSE,4.6,-,N/A,,Overcast,150,2013-01-22 19:15:00
1:35 PM,16.3,8.6,72,30.28,10.0,Calm,Calm,-,N/A,,Overcast,0,2013-01-22 19:35:00
1:55 PM,16.7,8.6,70,30.27,10.0,SSE,4.6,-,N/A,,Overcast,160,2013-01-22 19:55:00
2:15 PM,17.2,8.6,69,30.27,10.0,ESE,3.5,-,N/A,,Overcast,120,2013-01-22 20:15:00
2:35 PM,17.8,9.0,68,30.27,10.0,SE,4.6,-,N/A,,Overcast,130,2013-01-22 20:35:00
2:55 PM,18.5,9.5,68,30.25,10.0,SE,4.6,-,N/A,,Mostly Cloudy,130,2013-01-22 20:55:00
3:15 PM,18.5,9.3,67,30.25,10.0,SE,6.9,-,N/A,,Scattered Clouds,130,2013-01-22 21:15:00
3:35 PM,18.9,9.5,67,30.25,10.0,East,4.6,-,N/A,,Clear,90,2013-01-22 21:35:00
3:55 PM,18.5,9.5,68,30.25,10.0,East,5.8,-,N/A,,Clear,90,2013-01-22 21:55:00
4:15 PM,18.3,9.5,68,30.25,10.0,ESE,5.8,-,N/A,,Clear,110,2013-01-22 22:15:00
4:35 PM,18.1,9.5,69,30.24,10.0,ESE,4.6,-,N/A,,Clear,110,2013-01-22 22:35:00
4:55 PM,17.6,9.3,70,30.24,10.0,East,4.6,-,N/A,,Clear,100,2013-01-22 22:55:00
5:15 PM,16.5,9.1,73,30.24,10.0,East,5.8,-,N/A,,Clear,100,2013-01-22 23:15:00
5:35 PM,15.6,8.8,74,30.24,1.8,East,5.8,-,N/A,,Haze,80,2013-01-22 23:35:00
5:55 PM,14.7,8.1,75,30.24,10.0,East,5.8,-,N/A,,Clear,90,2013-01-22 23:55:00
6:15 PM,13.8,7.7,77,30.24,10.0,East,5.8,-,N/A,,Clear,90,2013-01-23 00:15:00
6:35 PM,13.5,7.7,78,30.25,10.0,East,5.8,-,N/A,,Clear,100,2013-01-23 00:35:00
6:55 PM,13.3,7.3,77,30.24,10.0,East,6.9,-,N/A,,Clear,100,2013-01-23 00:55:00
7:15 PM,12.6,6.8,78,30.24,10.0,ESE,6.9,-,N/A,,Clear,110,2013-01-23 01:15:00
7:35 PM,12.2,7.2,80,30.25,10.0,ESE,5.8,-,N/A,,Clear,110,2013-01-23 01:35:00
7:55 PM,12.7,7.3,79,30.25,10.0,East,3.5,-,N/A,,Clear,90,2013-01-23 01:55:00
8:15 PM,12.2,7.3,81,30.24,10.0,ESE,5.8,-,N/A,,Clear,110,2013-01-23 02:15:00
8:35 PM,12.6,7.7,81,30.23,10.0,SE,6.9,-,N/A,,Clear,130,2013-01-23 02:35:00
8:55 PM,12.7,7.3,79,30.23,10.0,ESE,5.8,-,N/A,,Clear,120,2013-01-23 02:55:00
9:15 PM,12.9,7.7,80,30.23,10.0,ESE,5.8,-,N/A,,Clear,120,2013-01-23 03:15:00
9:35 PM,12.9,7.7,80,30.23,10.0,SE,5.8,-,N/A,,Clear,130,2013-01-23 03:35:00
9:55 PM,13.5,7.7,78,30.22,10.0,SE,6.9,-,N/A,,Clear,130,2013-01-23 03:55:00
10:15 PM,13.5,7.7,78,30.23,10.0,SE,5.8,-,N/A,,Clear,130,2013-01-23 04:15:00
10:35 PM,13.6,7.5,77,30.23,10.0,SE,6.9,-,N/A,,Clear,130,2013-01-23 04:35:00
10:55 PM,13.6,7.5,77,30.23,10.0,SE,6.9,-,N/A,,Clear,130,2013-01-23 04:55:00
11:15 PM,13.3,7.2,77,30.23,10.0,SE,6.9,-,N/A,,Clear,130,2013-01-23 05:15:00
11:35 PM,12.9,6.8,77,30.22,10.0,SE,5.8,-,N/A,,Clear,130,2013-01-23 05:35:00
11:55 PM,12.7,7.2,78,30.22,10.0,SE,6.9,-,N/A,,Clear,140,2013-01-23 05:55:00